Time;durP1;ratioP1;P1;durP2;ratioP2;P2;SDS_P1;SDS_P2;PMS_P1;PMS_P2;Temp;Humidity;BMP_temperature;BMP_pressure;BME280_temperature;BME280_humidity;BME280_pressure;Samples;Min_cycle;Max_cycle;Signal;HPM_P1;HPM_P2
2021/12/17 00:01:14;;;;;;;42.67;20.02;;;9.10;99.90;;;;;;5096032;28;20085;-69
2021/12/17 00:03:47;;;;;;;41.50;19.23;;;9.10;99.90;;;;;;5096357;28;20075;-69
2021/12/17 00:08:49;;;;;;;51.03;22.27;;;9.10;99.90;;;;;;5096241;28;20126;-69
2021/12/17 00:11:16;;;;;;;38.13;19.95;;;9.10;99.90;;;;;;5094472;28;20055;-69
2021/12/17 00:13:43;;;;;;;41.45;19.02;;;9.00;99.90;;;;;;5096349;28;20407;-69
2021/12/17 00:16:16;;;;;;;37.55;18.50;;;9.00;99.90;;;;;;5095589;28;20032;-69
2021/12/17 00:18:57;;;;;;;;;;;9.10;99.90;;;;;;5079336;28;20127;-69
2021/12/17 00:48:47;;;;;;;29.13;14.43;;;8.90;99.90;;;;;;5095519;28;20040;-69
2021/12/17 00:54:07;;;;;;;22.00;12.20;;;8.90;99.90;;;;;;5094159;28;20045;-69
2021/12/17 00:56:33;;;;;;;23.50;12.85;;;8.90;99.90;;;;;;5093474;28;20072;-69
2021/12/17 00:58:59;;;;;;;20.05;10.85;;;8.80;99.90;;;;;;5095494;28;20117;-69
2021/12/17 01:01:25;;;;;;;24.23;11.50;;;8.80;99.90;;;;;;5095003;28;20040;-69
2021/12/17 01:03:52;;;;;;;18.65;10.65;;;8.80;99.90;;;;;;5095227;28;20075;-69
2021/12/17 01:06:19;;;;;;;21.23;10.85;;;8.80;99.90;;;;;;5093524;28;20081;-69
2021/12/17 01:08:45;;;;;;;24.73;11.43;;;8.80;99.90;;;;;;5095072;28;20047;-69
2021/12/17 01:11:11;;;;;;;24.85;13.07;;;8.80;99.90;;;;;;5093655;28;20048;-69
2021/12/17 01:13:38;;;;;;;19.05;10.98;;;8.80;99.90;;;;;;5094817;28;20119;-69
2021/12/17 01:16:04;;;;;;;24.05;11.02;;;8.80;99.90;;;;;;5094323;28;20039;-69
2021/12/17 01:18:44;;;;;;;21.35;9.93;;;8.80;99.90;;;;;;5094451;28;20129;-69
2021/12/17 01:21:34;;;;;;;19.77;10.13;;;8.70;99.90;;;;;;5093060;28;20555;-69
2021/12/17 01:24:09;;;;;;;17.40;9.00;;;8.70;99.90;;;;;;5094943;28;20039;-69
2021/12/17 01:42:59;;;;;;;17.08;9.13;;;8.80;99.90;;;;;;5093597;28;20040;-69
2021/12/17 01:45:29;;;;;;;16.13;7.55;;;8.70;99.90;;;;;;5092746;28;20552;-69
2021/12/17 01:47:55;;;;;;;17.75;8.65;;;8.70;99.90;;;;;;5093948;28;20047;-69
2021/12/17 01:56:16;;;;;;;16.55;8.35;;;8.70;99.90;;;;;;5091904;28;20515;-69
2021/12/17 02:01:29;;;;;;;18.95;8.65;;;8.80;99.90;;;;;;5092690;28;20044;-69
2021/12/17 02:03:56;;;;;;;14.40;7.57;;;8.80;99.90;;;;;;5092696;28;20082;-69
2021/12/17 02:06:23;;;;;;;17.25;7.70;;;8.70;99.90;;;;;;5092634;28;20040;-69
2021/12/17 02:08:50;;;;;;;17.33;7.68;;;8.80;99.90;;;;;;5092729;28;20071;-69
2021/12/17 02:28:42;;;;;;;14.70;8.32;;;8.80;99.90;;;;;;5091605;28;20493;-69
2021/12/17 02:33:28;;;;;;;15.27;7.22;;;8.70;99.90;;;;;;5092338;28;20427;-69
2021/12/17 02:35:53;;;;;;;16.15;8.05;;;8.70;99.90;;;;;;5093236;28;20101;-69
2021/12/17 02:38:19;;;;;;;15.35;7.85;;;8.60;99.90;;;;;;5093248;28;20488;-69
2021/12/17 02:46:13;;;;;;;12.07;6.60;;;8.60;99.90;;;;;;5093196;28;20040;-69
2021/12/17 02:48:41;;;;;;;14.30;6.90;;;8.60;99.90;;;;;;5092212;28;20059;-69
2021/12/17 02:51:07;;;;;;;13.02;7.22;;;8.60;99.90;;;;;;5093354;28;20400;-69
2021/12/17 02:53:33;;;;;;;12.70;7.00;;;8.60;99.90;;;;;;5093724;28;20036;-69
2021/12/17 02:56:05;;;;;;;14.95;7.63;;;8.60;99.90;;;;;;5093336;28;20051;-69
2021/12/17 02:58:33;;;;;;;13.70;6.93;;;8.50;99.90;;;;;;5092052;28;20036;-69
2021/12/17 03:01:01;;;;;;;14.02;6.88;;;8.50;99.90;;;;;;5093307;28;20529;-69
2021/12/17 03:03:30;;;;;;;12.38;5.88;;;8.60;99.90;;;;;;5093134;28;20480;-69
2021/12/17 03:05:57;;;;;;;13.18;6.63;;;8.50;99.90;;;;;;5092963;28;20075;-69
2021/12/17 03:08:23;;;;;;;12.93;7.15;;;8.60;99.90;;;;;;5093120;28;20114;-69
2021/12/17 03:10:50;;;;;;;11.45;6.32;;;8.60;99.90;;;;;;5093031;28;20400;-69
2021/12/17 03:13:17;;;;;;;11.02;6.70;;;8.60;99.90;;;;;;5093172;28;20040;-69
2021/12/17 03:26:09;;;;;;;14.27;5.95;;;8.60;99.90;;;;;;5091411;28;20047;-69
2021/12/17 03:28:37;;;;;;;12.85;7.00;;;8.60;99.90;;;;;;5093342;28;20040;-69
2021/12/17 03:31:04;;;;;;;13.88;7.47;;;8.60;99.90;;;;;;5093459;28;20043;-69
2021/12/17 03:33:30;;;;;;;11.70;6.82;;;8.60;99.90;;;;;;5093425;28;20051;-69
2021/12/17 03:35:58;;;;;;;10.30;6.15;;;8.60;99.90;;;;;;5092731;28;20044;-69
2021/12/17 03:38:24;;;;;;;11.07;6.05;;;8.60;99.90;;;;;;5092890;28;20048;-69
2021/12/17 03:40:58;;;;;;;13.23;7.53;;;8.60;99.90;;;;;;5074734;28;20051;-69
2021/12/17 03:43:30;;;;;;;11.32;6.78;;;8.60;99.90;;;;;;5092882;28;20048;-69
2021/12/17 03:45:55;;;;;;;19.17;7.63;;;8.60;99.90;;;;;;5095689;28;20039;-69
2021/12/17 03:48:21;;;;;;;11.90;7.28;;;8.60;99.90;;;;;;5095436;28;20048;-69
2021/12/17 03:50:47;;;;;;;13.07;8.48;;;8.60;99.90;;;;;;5096683;28;20127;-69
2021/12/17 03:53:12;;;;;;;16.33;8.13;;;8.60;99.90;;;;;;5096535;28;20050;-69
2021/12/17 03:55:38;;;;;;;12.38;7.50;;;8.60;99.90;;;;;;5094802;28;20044;-69
2021/12/17 03:58:04;;;;;;;16.33;7.18;;;8.60;99.90;;;;;;5096247;28;20043;-69
2021/12/17 04:00:30;;;;;;;11.43;6.40;;;8.60;99.90;;;;;;5095156;28;20040;-69
2021/12/17 04:02:56;;;;;;;12.85;6.70;;;8.50;99.90;;;;;;5096234;28;20044;-69
2021/12/17 04:05:23;;;;;;;14.43;7.45;;;8.50;99.90;;;;;;5094808;28;20094;-69
2021/12/17 04:07:49;;;;;;;13.93;7.00;;;8.50;99.90;;;;;;5096235;28;20088;-68
2021/12/17 04:10:17;;;;;;;12.63;6.85;;;8.50;99.90;;;;;;5094759;28;20446;-69
2021/12/17 04:15:17;;;;;;;11.90;6.13;;;8.50;99.90;;;;;;5095915;28;20087;-69
2021/12/17 04:17:53;;;;;;;15.57;7.93;;;8.50;99.90;;;;;;5095410;28;20067;-69
2021/12/17 04:20:19;;;;;;;11.10;6.00;;;8.50;99.90;;;;;;5095849;28;20046;-69
2021/12/17 04:22:45;;;;;;;10.80;6.22;;;8.50;99.90;;;;;;5096126;28;20040;-69
2021/12/17 04:25:11;;;;;;;12.40;5.22;;;8.50;99.90;;;;;;5094750;28;20391;-69
2021/12/17 04:27:37;;;;;;;10.32;5.85;;;8.50;99.90;;;;;;5095683;28;20040;-69
2021/12/17 04:30:02;;;;;;;12.02;6.30;;;8.50;99.90;;;;;;5096045;28;20032;-69
2021/12/17 04:32:28;;;;;;;12.23;6.30;;;8.50;99.90;;;;;;5095918;28;20063;-69
2021/12/17 04:34:54;;;;;;;8.70;5.80;;;8.50;99.90;;;;;;5095718;28;20036;-69
2021/12/17 04:37:19;;;;;;;10.63;6.55;;;8.50;99.90;;;;;;5095024;28;20560;-69
2021/12/17 04:39:45;;;;;;;11.25;6.68;;;8.50;99.90;;;;;;5094490;28;20043;-69
2021/12/17 04:42:20;;;;;;;12.48;7.45;;;8.50;99.90;;;;;;5095704;28;20492;-69
2021/12/17 04:44:53;;;;;;;14.77;7.40;;;8.50;99.90;;;;;;5095492;28;20499;-69
2021/12/17 04:57:48;;;;;;;13.32;7.13;;;8.50;99.90;;;;;;5095022;28;20048;-69
2021/12/17 05:00:21;;;;;;;13.25;7.70;;;8.50;99.90;;;;;;5095070;28;20043;-69
2021/12/17 05:02:50;;;;;;;11.45;6.80;;;8.50;99.90;;;;;;5095047;28;20070;-69
2021/12/17 05:05:18;;;;;;;15.25;7.18;;;8.50;99.90;;;;;;5095050;28;20393;-69
2021/12/17 05:08:00;;;;;;;10.70;6.78;;;8.40;99.90;;;;;;5094485;28;20472;-69
2021/12/17 05:10:45;;;;;;;10.55;6.35;;;8.50;99.90;;;;;;5094968;28;20077;-69
2021/12/17 05:18:53;;;;;;;15.52;6.53;;;8.50;99.90;;;;;;5094656;28;20123;-69
2021/12/17 05:21:22;;;;;;;11.15;5.97;;;8.50;99.90;;;;;;5095165;28;20040;-69
2021/12/17 05:23:47;;;;;;;14.45;7.20;;;8.50;99.90;;;;;;5094967;28;20040;-69
2021/12/17 05:26:16;;;;;;;14.10;6.68;;;8.50;99.90;;;;;;5094238;28;20172;-69
2021/12/17 05:28:41;;;;;;;13.18;7.00;;;8.50;99.90;;;;;;5094411;28;20081;-69
2021/12/17 05:31:07;;;;;;;14.82;7.32;;;8.50;99.90;;;;;;5093145;28;20109;-69
2021/12/17 05:33:33;;;;;;;13.23;7.32;;;8.50;99.90;;;;;;5094292;28;20404;-69
2021/12/17 05:35:58;;;;;;;19.27;8.93;;;8.50;99.90;;;;;;5094256;28;20042;-69
2021/12/17 05:38:26;;;;;;;19.02;8.55;;;8.50;99.90;;;;;;5094064;28;20036;-69
2021/12/17 05:40:53;;;;;;;13.95;7.32;;;8.50;99.90;;;;;;5094450;28;20487;-69
2021/12/17 05:43:19;;;;;;;15.20;8.18;;;8.50;99.90;;;;;;5094811;28;20044;-69
2021/12/17 05:45:51;;;;;;;17.80;8.70;;;8.50;99.90;;;;;;5094212;28;20521;-68
2021/12/17 05:48:20;;;;;;;16.48;9.75;;;8.50;99.90;;;;;;5094724;28;20031;-69
2021/12/17 05:50:48;;;;;;;18.35;9.70;;;8.50;99.90;;;;;;5094276;28;20407;-69
2021/12/17 05:53:14;;;;;;;18.88;10.20;;;8.50;99.90;;;;;;5094016;28;20116;-69
2021/12/17 05:55:41;;;;;;;13.82;8.90;;;8.50;99.90;;;;;;5093708;28;20039;-68
2021/12/17 05:58:08;;;;;;;15.82;8.48;;;8.50;99.90;;;;;;5094223;28;20426;-68
2021/12/17 06:00:35;;;;;;;18.83;10.27;;;8.50;99.90;;;;;;5093995;28;20089;-69
2021/12/17 06:03:02;;;;;;;17.88;9.57;;;8.50;99.90;;;;;;5093027;28;20075;-69
2021/12/17 06:05:29;;;;;;;18.30;9.95;;;8.50;99.90;;;;;;5093684;28;20070;-69
2021/12/17 06:07:55;;;;;;;14.48;8.77;;;8.50;99.90;;;;;;5093672;28;20040;-69
2021/12/17 06:10:21;;;;;;;15.57;8.95;;;8.50;99.90;;;;;;5094091;28;20039;-69
2021/12/17 06:12:46;;;;;;;17.95;10.30;;;8.50;99.90;;;;;;5094085;28;20396;-69
2021/12/17 06:15:15;;;;;;;18.40;9.95;;;8.50;99.90;;;;;;5092476;28;20392;-69
2021/12/17 06:17:42;;;;;;;18.23;10.35;;;8.50;99.90;;;;;;5092056;28;20125;-69
2021/12/17 06:20:09;;;;;;;16.15;9.77;;;8.50;99.90;;;;;;5092300;28;20105;-69
2021/12/17 06:22:35;;;;;;;19.58;11.27;;;8.50;99.90;;;;;;5093905;28;20043;-68
2021/12/17 06:25:01;;;;;;;19.25;10.27;;;8.40;99.90;;;;;;5092382;28;20044;-69
2021/12/17 06:27:28;;;;;;;17.98;10.30;;;8.40;99.90;;;;;;5093445;28;20043;-68
2021/12/17 06:29:54;;;;;;;17.40;9.50;;;8.40;99.90;;;;;;5093894;28;20054;-69
2021/12/17 06:32:21;;;;;;;18.38;11.23;;;8.40;99.90;;;;;;5092242;28;20131;-69
2021/12/17 06:34:47;;;;;;;17.35;10.15;;;8.40;99.90;;;;;;5093663;28;20091;-69
2021/12/17 06:37:15;;;;;;;17.10;10.57;;;8.50;99.90;;;;;;5093017;28;20052;-69
2021/12/17 06:39:42;;;;;;;20.83;10.65;;;8.50;99.90;;;;;;5092200;28;20048;-69
2021/12/17 06:42:08;;;;;;;18.80;11.10;;;8.40;99.90;;;;;;5093620;28;20122;-69
2021/12/17 06:44:34;;;;;;;20.02;11.63;;;8.50;99.90;;;;;;5093436;28;20039;-69
2021/12/17 06:47:08;;;;;;;22.27;11.77;;;8.50;99.90;;;;;;5092970;28;20032;-69
2021/12/17 07:00:41;;;;;;;22.27;11.55;;;8.40;99.90;;;;;;5076207;28;20048;-69
2021/12/17 07:11:19;;;;;;;23.05;12.25;;;8.30;99.90;;;;;;5093273;28;20357;-69
2021/12/17 07:20:21;;;;;;;23.60;13.50;;;8.30;99.90;;;;;;5093306;28;20127;-69
2021/12/17 07:31:49;;;;;;;30.85;15.50;;;8.30;99.90;;;;;;5097094;28;20040;-69
2021/12/17 07:35:45;;;;;;;31.55;14.43;;;8.30;99.90;;;;;;5095841;28;20044;-70
2021/12/17 07:40:57;;;;;;;27.42;13.75;;;8.30;99.90;;;;;;5095648;28;20441;-69
2021/12/17 07:43:52;;;;;;;28.38;13.30;;;8.30;99.90;;;;;;5096568;28;20092;-69
2021/12/17 07:46:13;;;;;;;35.17;15.63;;;8.30;99.90;;;;;;5096049;28;20036;-69
2021/12/17 07:48:40;;;;;;;28.00;14.05;;;8.30;99.90;;;;;;5095220;28;20040;-69
2021/12/17 07:51:08;;;;;;;35.55;15.65;;;8.40;99.90;;;;;;5096446;28;20036;-69
2021/12/17 07:53:34;;;;;;;35.42;15.90;;;8.30;99.90;;;;;;5099307;28;20067;-69
2021/12/17 07:56:01;;;;;;;29.67;14.65;;;8.30;99.90;;;;;;5095951;28;20110;-68
2021/12/17 07:58:28;;;;;;;36.83;16.17;;;8.30;99.90;;;;;;5095974;28;20483;-69
2021/12/17 08:00:54;;;;;;;31.50;15.10;;;8.30;99.90;;;;;;5096528;28;20082;-69
2021/12/17 08:03:21;;;;;;;32.47;15.95;;;8.40;99.90;;;;;;5095073;28;20430;-69
2021/12/17 08:05:47;;;;;;;35.55;17.08;;;8.40;99.90;;;;;;5095763;28;20036;-69
2021/12/17 08:08:13;;;;;;;30.77;15.13;;;8.40;99.90;;;;;;5095874;28;20036;-69
2021/12/17 08:10:38;;;;;;;29.70;14.73;;;8.40;99.90;;;;;;5095979;28;20089;-69
2021/12/17 08:13:07;;;;;;;36.70;16.60;;;8.40;99.90;;;;;;5095807;28;20517;-68
2021/12/17 08:15:38;;;;;;;40.55;17.15;;;8.40;99.90;;;;;;5095911;28;20040;-69
2021/12/17 08:26:01;;;;;;;35.95;15.65;;;8.40;99.90;;;;;;5103721;28;20043;-68
2021/12/17 08:28:50;;;;;;;34.08;15.52;;;8.50;99.90;;;;;;5095033;28;20059;-69
2021/12/17 08:31:15;;;;;;;36.92;16.58;;;8.50;99.90;;;;;;5095211;28;20093;-68
2021/12/17 08:33:41;;;;;;;33.38;16.33;;;8.50;99.90;;;;;;5095494;28;20444;-69
2021/12/17 08:36:06;;;;;;;29.75;16.13;;;8.50;99.90;;;;;;5093906;28;20046;-69
2021/12/17 08:38:32;;;;;;;30.55;16.42;;;8.60;99.90;;;;;;5095342;28;20089;-69
2021/12/17 08:40:59;;;;;;;35.53;16.98;;;8.50;99.90;;;;;;5095666;28;20411;-69
2021/12/17 08:43:25;;;;;;;36.67;16.27;;;8.60;99.90;;;;;;5095402;28;20065;-69
2021/12/17 08:45:51;;;;;;;37.38;17.67;;;8.50;99.90;;;;;;5095011;28;20039;-69
2021/12/17 08:48:17;;;;;;;27.65;14.30;;;8.60;99.90;;;;;;5093675;28;20044;-69
2021/12/17 08:50:43;;;;;;;29.10;14.02;;;8.60;99.90;;;;;;5095463;28;20089;-69
2021/12/17 08:53:08;;;;;;;32.10;16.77;;;8.60;99.90;;;;;;5095362;28;20036;-69
2021/12/17 08:55:34;;;;;;;28.60;14.38;;;8.60;99.90;;;;;;5095375;28;20384;-68
2021/12/17 08:58:00;;;;;;;29.23;14.95;;;8.60;99.90;;;;;;5095047;28;20472;-68
2021/12/17 09:00:26;;;;;;;32.13;15.52;;;8.70;99.90;;;;;;5094189;28;20467;-68
2021/12/17 09:02:51;;;;;;;26.52;14.45;;;8.70;99.90;;;;;;5095399;28;20135;-68
2021/12/17 09:05:18;;;;;;;27.17;14.65;;;8.70;99.90;;;;;;5095308;28;20365;-69
2021/12/17 09:07:44;;;;;;;28.98;13.45;;;8.70;99.90;;;;;;5093165;28;20054;-69
2021/12/17 09:10:11;;;;;;;29.17;15.10;;;8.70;99.90;;;;;;5095355;28;20100;-68
2021/12/17 09:12:39;;;;;;;28.95;15.10;;;8.80;99.90;;;;;;5095172;28;20089;-69
2021/12/17 09:15:05;;;;;;;28.73;14.18;;;8.80;99.90;;;;;;5094714;28;20124;-69
2021/12/17 09:17:35;;;;;;;30.85;14.75;;;8.80;99.90;;;;;;5092920;28;20040;-69
2021/12/17 09:20:00;;;;;;;26.80;14.18;;;8.80;99.90;;;;;;5094772;28;20075;-69
2021/12/17 09:22:26;;;;;;;22.65;11.70;;;8.80;99.90;;;;;;5097509;28;20448;-69
2021/12/17 09:24:52;;;;;;;31.15;15.35;;;8.80;99.90;;;;;;5093431;28;20391;-69
2021/12/17 09:27:18;;;;;;;29.98;14.55;;;8.90;99.90;;;;;;5093340;28;20480;-70
2021/12/17 09:29:44;;;;;;;28.52;14.50;;;8.80;99.90;;;;;;5094519;28;20047;-69
2021/12/17 09:32:10;;;;;;;29.02;14.68;;;8.90;99.90;;;;;;5094490;28;20040;-70
2021/12/17 09:34:36;;;;;;;28.75;13.52;;;8.90;99.90;;;;;;5093125;28;20502;-70
2021/12/17 09:37:02;;;;;;;29.67;15.07;;;8.90;99.90;;;;;;5093914;28;20043;-70
2021/12/17 09:39:27;;;;;;;29.20;14.50;;;8.90;99.90;;;;;;5094370;28;20032;-70
2021/12/17 09:41:53;;;;;;;24.95;13.98;;;8.90;99.90;;;;;;5094051;28;20032;-70
2021/12/17 09:44:19;;;;;;;28.30;14.52;;;8.90;99.90;;;;;;5094112;28;20040;-70
2021/12/17 09:46:47;;;;;;;25.67;12.45;;;8.90;99.90;;;;;;5092671;28;20048;-69
2021/12/17 09:49:14;;;;;;;19.67;11.23;;;9.00;99.90;;;;;;5092471;28;20052;-72
2021/12/17 09:51:40;;;;;;;21.20;11.70;;;9.10;99.90;;;;;;5098320;28;20040;-72
2021/12/17 09:54:06;;;;;;;21.42;10.32;;;9.10;99.90;;;;;;5098447;28;20409;-73
2021/12/17 09:56:32;;;;;;;24.30;11.25;;;9.20;99.90;;;;;;5101460;28;20040;-72
2021/12/17 09:58:59;;;;;;;20.50;11.15;;;9.20;99.90;;;;;;5101116;28;20035;-72
2021/12/17 10:01:25;;;;;;;16.95;10.90;;;9.30;99.90;;;;;;5114198;28;20035;-73
2021/12/17 10:04:17;;;;;;;18.73;9.73;;;9.30;99.90;;;;;;5114091;28;20118;-72
2021/12/17 10:06:43;;;;;;;21.00;9.82;;;9.40;99.90;;;;;;5113778;28;20036;-72
2021/12/17 10:09:09;;;;;;;24.80;10.48;;;9.40;99.90;;;;;;5114069;28;20045;-73
2021/12/17 10:11:35;;;;;;;17.33;10.50;;;9.40;99.90;;;;;;5095735;28;20047;-72
2021/12/17 10:14:18;;;;;;;21.13;9.48;;;9.50;99.90;;;;;;5113933;27;20042;-72
2021/12/17 10:16:44;;;;;;;18.02;9.10;;;9.50;99.90;;;;;;5113613;28;20054;-71
2021/12/17 10:19:10;;;;;;;20.00;10.32;;;9.50;99.90;;;;;;5114044;28;20047;-72
2021/12/17 10:21:43;;;;;;;18.10;9.75;;;9.60;99.90;;;;;;5112944;28;20082;-72
2021/12/17 10:24:21;;;;;;;16.67;8.85;;;9.60;99.90;;;;;;5113995;28;20380;-72
2021/12/17 10:26:46;;;;;;;15.07;8.73;;;9.60;99.90;;;;;;5113657;28;20400;-73
2021/12/17 10:29:21;;;;;;;16.48;8.93;;;9.60;99.90;;;;;;5112536;28;20039;-72
2021/12/17 10:31:56;;;;;;;17.55;8.73;;;9.60;99.90;;;;;;5112430;28;20403;-72
2021/12/17 10:34:24;;;;;;;15.45;9.15;;;9.70;99.90;;;;;;5113835;28;20584;-72
2021/12/17 10:36:50;;;;;;;14.68;7.85;;;9.70;99.90;;;;;;5113464;28;20035;-73
2021/12/17 10:39:41;;;;;;;17.15;9.70;;;9.70;99.90;;;;;;5113800;28;20040;-73
2021/12/17 10:42:07;;;;;;;15.50;9.02;;;9.80;99.90;;;;;;5111897;28;20052;-73
2021/12/17 10:44:33;;;;;;;16.02;7.75;;;9.80;99.90;;;;;;5113869;28;20062;-72
2021/12/17 10:47:14;;;;;;;14.82;8.00;;;9.80;99.90;;;;;;5113247;28;20395;-73
2021/12/17 10:49:53;;;;;;;13.75;7.78;;;9.80;99.90;;;;;;5113783;28;20054;-73
2021/12/17 10:52:27;;;;;;;18.25;8.93;;;9.90;99.90;;;;;;5113675;28;20161;-73
2021/12/17 10:55:07;;;;;;;16.73;9.43;;;9.90;99.90;;;;;;5117382;28;20380;-72
2021/12/17 10:57:33;;;;;;;17.35;9.15;;;9.90;99.90;;;;;;5117485;28;20059;-72
2021/12/17 11:00:00;;;;;;;13.88;8.95;;;9.80;99.90;;;;;;5118326;28;20032;-73
2021/12/17 11:02:33;;;;;;;15.43;8.65;;;9.90;99.90;;;;;;5108575;28;20536;-72
2021/12/17 11:05:11;;;;;;;14.48;8.23;;;9.90;99.90;;;;;;5108367;28;20092;-73
2021/12/17 11:07:44;;;;;;;16.70;8.43;;;9.90;99.90;;;;;;5109693;28;20042;-72
2021/12/17 11:10:10;;;;;;;14.50;7.68;;;9.90;99.90;;;;;;5106578;28;20036;-72
2021/12/17 11:12:44;;;;;;;15.10;8.05;;;9.90;99.90;;;;;;5114527;28;20039;-72
2021/12/17 11:15:13;;;;;;;13.80;7.55;;;9.90;99.90;;;;;;5118043;28;20050;-72
2021/12/17 11:17:42;;;;;;;11.52;7.88;;;9.90;99.90;;;;;;5117025;28;20048;-72
2021/12/17 11:20:11;;;;;;;15.23;7.78;;;9.90;99.90;;;;;;5118004;28;20085;-72
2021/12/17 11:22:39;;;;;;;9.70;6.25;;;9.90;99.90;;;;;;5116734;28;20049;-72
2021/12/17 11:25:06;;;;;;;10.98;7.13;;;10.00;99.90;;;;;;5116093;28;20044;-73
2021/12/17 11:27:33;;;;;;;9.57;6.60;;;10.00;99.90;;;;;;5116965;28;20497;-72
2021/12/17 11:29:59;;;;;;;10.05;7.22;;;10.00;99.90;;;;;;5117370;28;20032;-72
2021/12/17 11:32:24;;;;;;;10.52;8.10;;;9.90;99.90;;;;;;5117716;28;20472;-72
2021/12/17 11:34:50;;;;;;;13.20;10.00;;;9.90;99.90;;;;;;5117204;28;20035;-72
2021/12/17 11:37:17;;;;;;;13.38;8.70;;;9.80;99.90;;;;;;5115246;28;20044;-72
2021/12/17 11:39:55;;;;;;;10.82;7.20;;;9.80;99.90;;;;;;5117275;28;20040;-72
2021/12/17 11:42:43;;;;;;;11.07;7.88;;;9.80;99.90;;;;;;5117016;28;20036;-72
2021/12/17 11:45:25;;;;;;;12.50;7.38;;;9.80;99.90;;;;;;5105631;28;20459;-72
2021/12/17 11:47:53;;;;;;;11.87;8.40;;;9.80;99.90;;;;;;5096407;28;20044;-72
2021/12/17 11:50:19;;;;;;;13.30;7.82;;;9.80;99.90;;;;;;5096513;28;20067;-72
2021/12/17 11:52:47;;;;;;;11.45;6.68;;;9.90;99.90;;;;;;5095169;28;20068;-72
2021/12/17 11:55:25;;;;;;;11.02;6.75;;;9.90;99.90;;;;;;5096350;28;20542;-72
2021/12/17 11:57:54;;;;;;;8.82;5.88;;;9.90;99.90;;;;;;5095872;28;20047;-72
2021/12/17 12:00:49;;;;;;;8.30;4.80;;;9.90;99.90;;;;;;5096501;28;20115;-72
2021/12/17 12:03:23;;;;;;;8.23;5.68;;;9.90;99.90;;;;;;5093954;28;20087;-73
2021/12/17 12:05:52;;;;;;;8.65;5.20;;;9.90;99.90;;;;;;5095170;28;20055;-73
2021/12/17 12:08:47;;;;;;;8.82;5.63;;;10.00;99.90;;;;;;5096064;28;20492;-72
2021/12/17 12:11:19;;;;;;;7.30;5.72;;;10.00;99.90;;;;;;5096261;28;20107;-72
2021/12/17 12:13:47;;;;;;;9.13;5.18;;;10.00;99.90;;;;;;5096151;28;20036;-72
2021/12/17 12:16:21;;;;;;;8.52;5.82;;;10.00;99.90;;;;;;5096008;28;20047;-72
2021/12/17 12:18:54;;;;;;;6.30;4.57;;;10.00;99.90;;;;;;5095685;28;20123;-72
2021/12/17 12:21:25;;;;;;;7.28;4.32;;;9.90;99.90;;;;;;5096090;28;20040;-72
2021/12/17 12:24:05;;;;;;;6.80;4.10;;;9.80;99.90;;;;;;5095842;28;20488;-72
2021/12/17 12:26:37;;;;;;;6.22;4.40;;;9.80;99.90;;;;;;5095688;28;20395;-72
2021/12/17 12:29:06;;;;;;;6.45;4.65;;;9.70;99.90;;;;;;5094689;28;20115;-73
2021/12/17 12:31:34;;;;;;;6.60;4.40;;;9.80;99.90;;;;;;5095824;28;20043;-72
2021/12/17 12:34:06;;;;;;;5.18;3.50;;;9.70;99.90;;;;;;5095793;28;20046;-72
2021/12/17 12:36:51;;;;;;;5.68;4.10;;;9.80;99.90;;;;;;5095262;28;20044;-73
2021/12/17 12:39:25;;;;;;;5.93;3.47;;;9.80;99.90;;;;;;5094317;28;20048;-73
2021/12/17 12:42:06;;;;;;;7.00;4.00;;;9.80;99.90;;;;;;5095744;28;20040;-70
2021/12/17 12:44:49;;;;;;;8.07;4.57;;;9.80;99.90;;;;;;5095040;28;20097;-72
2021/12/17 12:47:24;;;;;;;6.72;4.82;;;9.80;99.90;;;;;;5100476;28;20046;-73
2021/12/17 12:49:59;;;;;;;6.78;4.75;;;9.80;99.90;;;;;;5105958;28;20119;-73
2021/12/17 12:52:39;;;;;;;7.55;5.03;;;9.70;99.90;;;;;;5105439;28;20111;-73
2021/12/17 12:55:13;;;;;;;7.85;4.60;;;9.70;99.90;;;;;;5105213;28;20046;-73
2021/12/17 12:57:45;;;;;;;6.07;4.60;;;9.70;99.90;;;;;;5102965;28;20039;-73
2021/12/17 13:00:30;;;;;;;12.20;5.80;;;9.80;99.90;;;;;;5105012;28;20040;-73
2021/12/17 13:03:01;;;;;;;7.03;4.57;;;9.70;99.90;;;;;;5095043;28;20461;-73
2021/12/17 13:05:26;;;;;;;7.40;5.40;;;9.70;99.90;;;;;;5095107;28;20044;-73
2021/12/17 13:08:01;;;;;;;7.13;4.43;;;9.70;99.90;;;;;;5093564;28;20051;-73
2021/12/17 13:10:30;;;;;;;7.60;4.53;;;9.70;99.90;;;;;;5094924;28;20036;-73
2021/12/17 13:13:27;;;;;;;6.88;4.82;;;9.70;99.90;;;;;;5093602;28;20047;-73
2021/12/17 13:16:22;;;;;;;6.93;4.90;;;9.80;99.90;;;;;;5094853;28;20071;-75
2021/12/17 13:24:18;;;;;;;6.72;5.35;;;9.60;99.90;;;;;;5105707;28;20032;-74
2021/12/17 13:26:55;;;;;;;7.13;4.60;;;9.70;99.90;;;;;;5102524;28;20036;-74
2021/12/17 13:29:34;;;;;;;6.13;4.13;;;9.80;99.90;;;;;;5097334;28;20040;-74
2021/12/17 13:32:09;;;;;;;7.07;4.82;;;9.80;99.90;;;;;;5094618;28;20044;-73
2021/12/17 13:34:44;;;;;;;6.68;5.10;;;9.80;99.90;;;;;;5094960;28;20044;-74
2021/12/17 13:37:16;;;;;;;6.18;4.95;;;9.80;99.90;;;;;;5093878;28;20084;-73
2021/12/17 13:40:01;;;;;;;6.25;4.97;;;9.80;99.90;;;;;;5108476;28;20043;-73
2021/12/17 13:42:38;;;;;;;8.88;5.72;;;9.80;99.90;;;;;;5114773;28;20054;-74
2021/12/17 13:45:04;;;;;;;6.93;4.80;;;9.80;99.90;;;;;;5113594;28;20066;-74
2021/12/17 13:47:33;;;;;;;7.75;5.43;;;9.80;99.90;;;;;;5114136;28;20328;-74
2021/12/17 13:50:06;;;;;;;8.40;5.50;;;9.70;99.90;;;;;;5114524;28;20040;-74
2021/12/17 13:52:33;;;;;;;;;;;9.80;99.90;;;;;;5115020;28;20519;-74
2021/12/17 13:55:02;;;;;;;9.07;5.70;;;9.80;99.90;;;;;;5114718;28;19950;-74
2021/12/17 13:57:30;;;;;;;9.50;5.70;;;9.80;99.90;;;;;;5114035;27;20047;-74
2021/12/17 14:00:15;;;;;;;8.73;5.75;;;9.70;99.90;;;;;;5113046;28;20031;-74
2021/12/17 14:02:45;;;;;;;11.68;6.40;;;9.80;99.90;;;;;;5113504;28;20047;-74
2021/12/17 14:05:30;;;;;;;9.82;6.25;;;9.80;99.90;;;;;;5114273;28;20417;-74
2021/12/17 14:07:59;;;;;;;8.15;5.75;;;9.80;99.90;;;;;;5114477;28;20035;-74
2021/12/17 14:10:30;;;;;;;10.45;5.85;;;9.70;99.90;;;;;;5114900;28;20487;-79
2021/12/17 14:12:55;;;;;;;8.38;5.60;;;9.80;99.90;;;;;;5114366;28;20387;-73
2021/12/17 14:15:24;;;;;;;8.65;5.28;;;9.70;99.90;;;;;;5113395;28;20043;-73
2021/12/17 14:17:55;;;;;;;8.13;5.47;;;9.70;99.90;;;;;;5113663;28;20035;-74
2021/12/17 14:20:28;;;;;;;9.15;5.80;;;9.70;99.90;;;;;;5114014;28;20110;-74
2021/12/17 14:22:55;;;;;;;9.07;6.10;;;9.70;99.90;;;;;;5113966;28;20067;-74
2021/12/17 14:25:29;;;;;;;9.75;6.32;;;9.70;99.90;;;;;;5113030;28;20114;-74
2021/12/17 14:28:09;;;;;;;10.65;6.57;;;9.70;99.90;;;;;;5113545;28;20495;-74
2021/12/17 14:30:35;;;;;;;8.20;5.82;;;9.70;99.90;;;;;;5114222;28;20118;-74
2021/12/17 14:33:13;;;;;;;9.55;5.68;;;9.80;99.90;;;;;;5112675;28;20050;-74
2021/12/17 14:35:39;;;;;;;8.95;5.80;;;9.80;99.90;;;;;;5109277;28;20481;-74
2021/12/17 14:38:05;;;;;;;8.23;5.18;;;9.70;99.90;;;;;;5101903;28;20105;-74
2021/12/17 14:40:48;;;;;;;9.93;6.65;;;9.70;99.90;;;;;;5110624;28;20126;-73
2021/12/17 14:43:18;;;;;;;6.40;5.57;;;9.70;99.90;;;;;;5092385;28;20091;-74
2021/12/17 14:45:51;;;;;;;8.20;6.00;;;9.70;99.90;;;;;;5091572;28;20043;-74
2021/12/17 14:48:29;;;;;;;8.60;6.22;;;9.70;99.90;;;;;;5092269;28;20097;-74
2021/12/17 15:00:17;;;;;;;10.18;6.15;;;9.70;99.90;;;;;;5099005;28;20036;-73
2021/12/17 15:02:37;;;;;;;11.23;6.35;;;9.60;99.90;;;;;;5113816;28;20079;-74
2021/12/17 15:04:59;;;;;;;10.80;6.88;;;9.60;99.90;;;;;;5113487;28;20483;-74
2021/12/17 15:07:26;;;;;;;8.70;6.82;;;9.60;99.90;;;;;;5113201;28;20032;-74
2021/12/17 15:09:51;;;;;;;10.27;7.15;;;9.60;99.90;;;;;;5113449;28;20036;-74
2021/12/17 15:14:58;;;;;;;13.80;7.15;;;9.60;99.90;;;;;;5114181;28;20132;-74
2021/12/17 15:17:24;;;;;;;9.00;6.50;;;9.60;99.90;;;;;;5113073;28;20031;-74
2021/12/17 15:19:50;;;;;;;14.60;7.95;;;9.60;99.90;;;;;;5112323;28;20509;-74
2021/12/17 15:22:15;;;;;;;10.95;6.95;;;9.60;99.90;;;;;;5113471;28;20089;-74
2021/12/17 15:24:41;;;;;;;9.52;6.85;;;9.60;99.90;;;;;;5113571;28;20110;-74
2021/12/17 15:27:07;;;;;;;13.68;8.38;;;9.60;99.90;;;;;;5113131;28;20088;-71
2021/12/17 15:29:33;;;;;;;12.18;7.38;;;9.60;99.90;;;;;;5113554;28;20032;-73
2021/12/17 15:31:59;;;;;;;10.68;7.88;;;9.60;99.90;;;;;;5113457;28;20035;-74
2021/12/17 15:34:25;;;;;;;10.07;7.25;;;9.60;99.90;;;;;;5113265;28;20345;-74
2021/12/17 15:36:51;;;;;;;12.18;8.07;;;9.50;99.90;;;;;;5112895;28;20040;-74
2021/12/17 15:39:17;;;;;;;12.02;7.90;;;9.50;99.90;;;;;;5113510;28;20050;-74
2021/12/17 15:41:43;;;;;;;12.98;7.20;;;9.60;99.90;;;;;;5116229;28;20106;-73
2021/12/17 15:44:09;;;;;;;8.93;6.82;;;9.50;99.90;;;;;;5117181;28;20470;-74
2021/12/17 15:46:36;;;;;;;17.23;10.55;;;9.50;99.90;;;;;;5116781;28;20032;-74
2021/12/17 15:49:05;;;;;;;12.15;8.57;;;9.50;99.90;;;;;;5116792;28;20487;-74
2021/12/17 15:51:31;;;;;;;12.95;8.20;;;9.50;99.90;;;;;;5117428;28;20043;-74
2021/12/17 15:53:57;;;;;;;13.45;9.23;;;9.50;99.90;;;;;;5115681;28;20035;-73